ADDS METAR Data INFO
IDs: Format: Raw Decoded Include TAF

Data at: 1145 UTC 25 Jun 2018

KDFW 251120Z 25008KT 4SM RA SCT028CB BKN034 OVC050 26/23 A3003 RMK AO2 WSHFT 1041 RAB04 VIS E-SE 2 CB NE-OHD-SW MOV SE P0004 T02610228
KDFW 251115Z 25008KT 2SM +RA SCT028CB BKN039 OVC050 27/22 A3002 RMK AO2 WSHFT 1041 LTG DSNT NE RAB04 CB NE-OHD-SW MOV SE P0000 T02670222
KDFW 251056Z COR 29010KT 10SM BKN030CB OVC036 28/22 A3002 RMK AO2 WSHFT 1041 CB VC W-N MOV SE T02780217
KDFW 251053Z 30010KT 10SM BKN028 OVC038 28/22 A3003 RMK AO2 PK WND 19027/0954 SLP157 CB DSNT W-N MOV SE T02780217
KDFW 250953Z 19021G28KT 10SM FEW026 BKN036 BKN250 27/22 A2989 RMK AO2 PK WND 19031/0927 SLP110 T02720217
KDFW 250911Z 19023G30KT 10SM SCT025 BKN034 BKN250 27/22 A2987 RMK AO2 PK WND 18030/0857 T02720217
KDFW 250853Z 19027G36KT 10SM BKN026 BKN250 28/22 A2986 RMK AO2 PK WND 20036/0852 SLP100 T02780217 53013
KDFW 250753Z 17020G27KT 10SM BKN025 BKN250 28/22 A2983 RMK AO2 PK WND 17031/0655 SLP090 T02780222
KDFW 250741Z 17018G27KT 10SM BKN027 BKN250 28/22 A2982 RMK AO2 PK WND 17031/0655 T02780222
KDFW 250653Z 17018G30KT 10SM FEW028 SCT250 28/22 A2981 RMK AO2 PK WND 17032/0616 SLP083 T02830217
KDFW 250553Z 17022G30KT 10SM FEW250 29/22 A2982 RMK AO2 PK WND 17030/0547 SLP087 T02890217 10356 20289 403720272 58001
KDFW 250453Z 17018G26KT 10SM FEW250 30/21 A2983 RMK AO2 PK WND 16026/0441 SLP090 T03000211
KDFW 250353Z 17015G22KT 10SM FEW250 31/21 A2983 RMK AO2 SLP092 T03110211
KDFW 250253Z 16013G22KT 10SM FEW250 32/19 A2982 RMK AO2 SLP088 T03220189 53001
KDFW 250153Z 16014G23KT 10SM FEW065 FEW250 33/19 A2979 RMK AO2 PK WND 14027/0105 SLP077 T03280189
KDFW 250053Z 15017G26KT 10SM FEW065 FEW200 FEW300 34/18 A2981 RMK AO2 PK WND 15026/0053 SLP083 T03440183
KDFW 242353Z 14015G21KT 10SM SCT080 SCT200 BKN300 36/19 A2982 RMK AO2 SLP086 MDT CU DSNT NE-E T03560194 10372 20322 53021
KDFW 242253Z 16018G26KT 10SM SCT070 SCT170 BKN300 36/19 A2980 RMK AO2 PK WND 16028/2207 SLP079 CB DSNT NE MOV E T03560189
KDFW 242153Z 17019G28KT 10SM FEW055 FEW170 FEW300 37/19 A2977 RMK AO2 PK WND 15032/2114 SLP070 CB DSNT NW-NE MOV E T03670189
KDFW 242053Z 17018G27KT 10SM FEW045 FEW300 36/19 A2976 RMK AO2 PK WND 20034/2006 SLP065 CB DSNT NW-N MOV E T03610194 56024
KDFW 241953Z 16019G30KT 10SM FEW045 FEW300 36/20 A2976 RMK AO2 PK WND 19030/1944 SLP067 T03610200
KDFW 241853Z 16018G24KT 10SM FEW045 FEW300 34/21 A2981 RMK AO2 PK WND 18027/1800 SLP082 T03390211
KDFW 241753Z 20017G25KT 10SM FEW044 FEW300 33/20 A2983 RMK AO2 PK WND 20026/1740 SLP090 T03330200 10333 20272 58009
KDFW 241653Z 19017G27KT 10SM FEW040 SCT200 32/21 A2984 RMK AO2 PK WND 19027/1638 SLP095 T03220211
KDFW 241553Z 17019G26KT 10SM SCT036 SCT200 32/21 A2984 RMK AO2 PK WND 18027/1541 SLP095 T03170211
KDFW 241453Z 17011KT 10SM SCT033 SCT040 BKN200 29/22 A2986 RMK AO2 SLP100 T02890222 51026
KDFW 241353Z 17010KT 10SM SCT029 OVC038 28/22 A2985 RMK AO2 SLP100 T02780222
KDFW 241321Z 18009KT 10SM BKN029 OVC037 27/22 A2985 RMK AO2 T02720217
KDFW 241253Z 18013KT 10SM OVC032 27/22 A2983 RMK AO2 SLP092 T02720217
KDFW 241153Z 18014G23KT 10SM BKN035 27/22 A2978 RMK AO2 SLP072 60000 70002 T02720217 10294 20272 51040
KDFW 241131Z 18017KT 10SM BKN034 OVC250 27/22 A2978 RMK AO2 T02720217
KDFW 241053Z 20017G22KT 10SM BKN027 BKN250 27/22 A2976 RMK AO2 PK WND 17026/1003 PRESRR SLP067 T02720222
KDFW 241026Z 19019KT 10SM BKN027 BKN250 27/22 A2974 RMK AO2 PK WND 17026/1003 PRESRR T02720222
KDFW 240953Z 16014G23KT 10SM SCT026 SCT190 BKN250 27/22 A2969 RMK AO2 PK WND 18036/0912 SLP042 T02720222
KDFW 240853Z 17020G32KT 10SM FEW025 BKN190 OVC250 28/22 A2966 RMK AO2 PK WND 17038/0754 SLP032 VIRGA E-S 60000 T02780222 55050
KDFW 240753Z 17031G40KT 10SM FEW100 BKN150 OVC220 28/22 A2962 RMK AO2 PK WND 17042/0731 RAB33E43 TSE33 SLP018 TS DSIPTD VIRGA OHD-ALQDS P0000 T02780222
KDFW 240734Z 17029G42KT 10SM -RA FEW100 BKN170 OVC220 28/22 A2966 RMK AO2 PK WND 17042/0731 RAB33 TSE33 PRESFR TS DSIPTD P0000 T02830222
KDFW 240653Z 17023G31KT 10SM TS FEW075CB SCT110 OVC200 29/22 A2973 RMK AO2 PK WND 18031/0646 LTG DSNT SW AND W TSB20 PRESFR SLP057 FRQ LTGICCCCG SW-W TS SW-W MOV E T02890222
KDFW 240622Z COR 18017G30KT 10SM TS FEW075CB SCT180 OVC230 29/22 A2977 RMK AO2 PK WND 17030/0613 LTG DSNT SW-NW TSB20 PRESFR FRQ LTGICCCCG SW-W TS SW-W MOV E T02940217
KDFW 240553Z 18017G25KT 10SM FEW075 SCT180 OVC230 29/22 A2981 RMK AO2 SLP083 FRQ LTGICCC DSNT SW-W CB DSNT SW-W MOV E T02940217 10350 20294 403610244 51029
KDFW 240453Z COR 16013G21KT 10SM FEW065 SCT200 OVC250 31/22 A2978 RMK AO2 OCNL LTGIC DSNT W-NW CB DSNT W-NW MOV E SLP073 T03060217
KDFW 240353Z 15011KT 10SM FEW065 BKN250 31/21 A2976 RMK AO2 SLP068 OCNL LTGIC DSNT W-NW CB DSNT W-NW MOV SE T03110211
KDFW 240253Z 13010KT 10SM FEW065 SCT250 31/21 A2972 RMK AO2 SLP054 OCNL LTGIC DSNT W-NW CB DSNT W-NW MOV SE T03060211 52003
KDFW 240153Z 13013KT 10SM SCT065 SCT250 32/21 A2972 RMK AO2 SLP053 T03170206
KDFW 240053Z 16014KT 10SM SCT070 SCT250 34/19 A2972 RMK AO2 SLP052 T03390194
KDFW 232353Z 15014KT 10SM SCT070 35/20 A2971 RMK AO2 SLP050 T03500200 10361 20322 56010